Auburn University, Alabama
Current Conditions -  °F | °C
As of 7:55 PM on Monday 24 Nov 2014 (Local Time) from KAUO Reporting Station
Clear Clear  
Wind Chill: 57°   Ceiling: Unl
Heat Index: 57°   Visibility: 10mi
Dew Point: 46°   Wind: 7mph
Humidity: 67%   Direction: 330°NNW
Pressure: 29.99"   Gusts: NA
Location:  32.61°N, 85.48°W
Report Text: KAUO 250155Z AUTO 33006KT 10SM CLR 14/08 A2999 RMK AO1
Loading
Personal Weather Stations






























Interactive Weather Map New forecast layout! Learn more

10-Day Weather Forecast

Advertisements
Track Severe Weather on mobile